createdAt,value
2023-02-05T00:02:10.709Z,99.90
2023-02-05T00:04:38.184Z,99.90
2023-02-05T00:07:05.483Z,99.90
2023-02-05T00:09:32.724Z,99.90
2023-02-05T00:12:00.174Z,99.90
2023-02-05T00:14:27.049Z,99.90
2023-02-05T00:16:54.522Z,99.90
2023-02-05T00:19:21.384Z,99.90
2023-02-05T00:21:49.830Z,99.90
2023-02-05T00:24:16.926Z,99.90
2023-02-05T00:26:43.710Z,99.90
2023-02-05T00:29:10.635Z,99.90
2023-02-05T00:31:37.593Z,99.90
2023-02-05T00:34:05.934Z,99.90
2023-02-05T00:36:32.743Z,99.90
2023-02-05T00:38:59.509Z,99.90
2023-02-05T00:41:26.241Z,99.90
2023-02-05T00:43:53.105Z,99.90
2023-02-05T00:46:19.994Z,99.90
2023-02-05T00:48:46.687Z,99.90
2023-02-05T00:51:13.471Z,99.90
2023-02-05T00:53:40.310Z,99.90
2023-02-05T00:56:07.270Z,99.90
2023-02-05T00:58:34.461Z,99.90
2023-02-05T01:01:01.203Z,99.90
2023-02-05T01:03:28.129Z,99.90
2023-02-05T01:05:54.914Z,99.90
2023-02-05T01:08:21.662Z,99.90
2023-02-05T01:10:50.285Z,99.90
2023-02-05T01:13:18.511Z,99.90
2023-02-05T01:15:45.800Z,99.90
2023-02-05T01:18:13.082Z,99.90
2023-02-05T01:20:41.477Z,99.90
2023-02-05T01:23:08.318Z,99.90
2023-02-05T01:25:35.792Z,99.90
2023-02-05T01:28:02.643Z,99.90
2023-02-05T01:30:29.438Z,99.90
2023-02-05T01:32:58.974Z,99.90
2023-02-05T01:35:25.801Z,99.90
2023-02-05T01:37:52.565Z,99.90
2023-02-05T01:40:20.038Z,99.90
2023-02-05T01:42:47.179Z,99.90
2023-02-05T01:45:23.071Z,99.90
2023-02-05T01:47:57.850Z,99.90
2023-02-05T01:50:29.697Z,99.90
2023-02-05T01:52:59.764Z,99.90
2023-02-05T01:55:27.992Z,99.90
2023-02-05T01:57:55.095Z,99.90
2023-02-05T02:00:23.166Z,99.90
2023-02-05T02:02:49.912Z,99.90
2023-02-05T02:05:18.481Z,99.90
2023-02-05T02:07:45.451Z,99.90
2023-02-05T02:10:15.299Z,99.90
2023-02-05T02:12:44.901Z,99.90
2023-02-05T02:15:21.365Z,99.90
2023-02-05T02:17:53.433Z,99.90
2023-02-05T02:20:33.688Z,99.90
2023-02-05T02:23:37.929Z,99.90
2023-02-05T02:26:33.824Z,99.90
2023-02-05T02:29:04.441Z,99.90
2023-02-05T02:31:40.574Z,99.90
2023-02-05T02:34:15.631Z,99.90
2023-02-05T02:36:53.053Z,99.90
2023-02-05T02:39:26.057Z,99.90
2023-02-05T02:41:54.580Z,99.90
2023-02-05T02:44:35.353Z,99.90
2023-02-05T02:47:11.482Z,99.90
2023-02-05T02:49:47.768Z,99.90
2023-02-05T02:52:16.928Z,99.90
2023-02-05T02:54:47.641Z,99.90
2023-02-05T02:57:17.468Z,99.90
2023-02-05T02:59:48.160Z,99.90
2023-02-05T03:02:18.533Z,99.90
2023-02-05T03:04:52.068Z,99.90
2023-02-05T03:07:24.882Z,99.90
2023-02-05T03:10:00.306Z,99.90
2023-02-05T03:12:27.393Z,99.90
2023-02-05T03:14:54.426Z,99.90
2023-02-05T03:17:22.968Z,99.90
2023-02-05T03:19:57.752Z,99.90
2023-02-05T03:22:24.671Z,99.90
2023-02-05T03:24:51.835Z,99.90
2023-02-05T03:27:18.823Z,99.90
2023-02-05T03:29:45.693Z,99.90
2023-02-05T03:32:38.473Z,99.90
2023-02-05T03:35:23.326Z,99.90
2023-02-05T03:38:08.984Z,99.90
2023-02-05T03:40:38.730Z,99.90
2023-02-05T03:43:40.098Z,99.90
2023-02-05T03:46:13.133Z,99.90
2023-02-05T03:48:53.676Z,99.90
2023-02-05T03:51:45.472Z,99.90
2023-02-05T03:54:39.426Z,99.90
2023-02-05T03:57:15.121Z,99.90
2023-02-05T03:59:43.334Z,99.90
2023-02-05T04:02:10.758Z,99.90
2023-02-05T04:04:37.546Z,99.90
2023-02-05T04:07:04.266Z,99.90
2023-02-05T04:09:31.021Z,99.90
2023-02-05T04:11:57.795Z,99.90
2023-02-05T04:14:24.533Z,99.90
2023-02-05T04:16:51.244Z,99.90
2023-02-05T04:19:17.952Z,99.90
2023-02-05T04:21:44.738Z,99.90
2023-02-05T04:24:11.507Z,99.90
2023-02-05T04:26:38.248Z,99.90
2023-02-05T04:29:04.987Z,99.90
2023-02-05T04:31:31.754Z,99.90
2023-02-05T04:33:58.756Z,99.90
2023-02-05T04:36:25.430Z,99.90
2023-02-05T04:38:52.194Z,99.90
2023-02-05T04:41:18.964Z,99.90
2023-02-05T04:43:45.680Z,99.90
2023-02-05T04:46:12.462Z,99.90
2023-02-05T04:48:39.874Z,99.90
2023-02-05T04:51:12.168Z,99.90
2023-02-05T04:53:39.411Z,99.90
2023-02-05T04:56:06.450Z,99.90
2023-02-05T04:58:33.196Z,99.90
2023-02-05T05:01:00.001Z,99.90
2023-02-05T05:03:26.772Z,99.90
2023-02-05T05:05:53.667Z,99.90
2023-02-05T05:08:20.507Z,99.90
2023-02-05T05:10:47.415Z,99.90
2023-02-05T05:13:14.146Z,99.90
2023-02-05T05:15:40.989Z,99.90
2023-02-05T05:18:07.745Z,99.90
2023-02-05T05:20:34.457Z,99.90
2023-02-05T05:23:01.273Z,99.90
2023-02-05T05:25:28.137Z,99.90
2023-02-05T05:27:54.909Z,99.90
2023-02-05T05:30:21.761Z,99.90
2023-02-05T05:32:48.496Z,99.90
2023-02-05T05:35:15.240Z,99.90
2023-02-05T05:37:41.998Z,99.90
2023-02-05T05:40:29.811Z,99.90
2023-02-05T05:43:14.851Z,99.90
2023-02-05T05:45:41.715Z,99.90
2023-02-05T05:48:09.142Z,99.90
2023-02-05T05:50:35.863Z,99.90
2023-02-05T05:53:02.565Z,99.90
2023-02-05T05:55:29.337Z,99.90
2023-02-05T05:57:56.087Z,99.90
2023-02-05T06:00:22.969Z,99.90
2023-02-05T06:02:50.007Z,99.90
2023-02-05T06:05:16.891Z,99.90
2023-02-05T06:07:43.790Z,99.90
2023-02-05T06:10:10.603Z,99.90
2023-02-05T06:12:37.328Z,99.90
2023-02-05T06:15:04.710Z,99.90
2023-02-05T06:17:31.515Z,99.90
2023-02-05T06:19:58.205Z,99.90
2023-02-05T06:22:25.044Z,99.90
2023-02-05T06:24:51.858Z,99.90
2023-02-05T06:28:39.069Z,99.90
2023-02-05T06:30:39.970Z,99.90
2023-02-05T06:33:06.910Z,99.90
2023-02-05T06:35:36.659Z,99.90
2023-02-05T06:38:03.579Z,99.90
2023-02-05T06:40:30.412Z,99.90
2023-02-05T06:42:57.102Z,99.90
2023-02-05T06:45:23.963Z,99.90
2023-02-05T06:47:53.242Z,99.90
2023-02-05T06:50:20.994Z,99.90
2023-02-05T06:53:40.428Z,99.90
2023-02-05T06:56:07.895Z,99.90
2023-02-05T06:58:34.731Z,99.90
2023-02-05T07:01:02.167Z,99.90
2023-02-05T07:03:28.989Z,99.90
2023-02-05T07:05:55.736Z,99.90
2023-02-05T07:08:22.514Z,99.90
2023-02-05T07:10:49.305Z,99.90
2023-02-05T07:13:40.920Z,99.90
2023-02-05T07:16:08.089Z,99.90
2023-02-05T07:18:35.294Z,99.90
2023-02-05T07:21:06.458Z,99.90
2023-02-05T07:23:33.595Z,99.90
2023-02-05T07:26:10.438Z,99.90
2023-02-05T07:28:37.377Z,99.90
2023-02-05T07:31:09.208Z,99.90
2023-02-05T07:33:37.052Z,99.90
2023-02-05T07:36:09.040Z,99.90
2023-02-05T07:38:37.678Z,99.90
2023-02-05T07:41:05.845Z,99.90
2023-02-05T07:43:32.702Z,99.90
2023-02-05T07:46:01.166Z,99.90
2023-02-05T07:48:28.138Z,99.90
2023-02-05T07:50:54.939Z,99.90
2023-02-05T07:53:22.043Z,99.90
2023-02-05T07:55:48.801Z,99.90
2023-02-05T07:58:15.934Z,99.90
2023-02-05T08:00:43.038Z,99.90
2023-02-05T08:03:10.107Z,99.90
2023-02-05T08:05:37.992Z,99.90
2023-02-05T08:08:05.390Z,99.90
2023-02-05T08:10:32.734Z,99.90
2023-02-05T08:12:59.658Z,99.90
2023-02-05T08:15:28.236Z,99.90
2023-02-05T08:17:56.450Z,99.90
2023-02-05T08:20:23.247Z,99.30
2023-02-05T08:22:49.944Z,98.50
2023-02-05T08:25:17.011Z,98.90
2023-02-05T08:27:44.284Z,98.00
2023-02-05T08:30:14.662Z,97.50
2023-02-05T08:32:41.393Z,97.10
2023-02-05T08:35:08.443Z,98.10
2023-02-05T08:37:35.244Z,95.90
2023-02-05T08:40:01.937Z,96.30
2023-02-05T08:42:28.712Z,96.20
2023-02-05T08:44:58.434Z,93.20
2023-02-05T08:47:26.357Z,92.50
2023-02-05T08:49:54.074Z,92.50
2023-02-05T08:52:21.317Z,90.70
2023-02-05T08:54:48.236Z,87.90
2023-02-05T08:57:16.659Z,88.60
2023-02-05T08:59:43.614Z,87.00
2023-02-05T09:02:17.168Z,86.20
2023-02-05T09:04:49.427Z,85.20
2023-02-05T09:07:17.646Z,82.00
2023-02-05T09:15:49.307Z,79.80
2023-02-05T09:21:21.705Z,78.80
2023-02-05T09:23:48.520Z,76.70
2023-02-05T09:26:15.400Z,76.30
2023-02-05T09:28:42.881Z,76.40
2023-02-05T09:31:20.667Z,77.70
2023-02-05T09:37:05.354Z,77.40
2023-02-05T09:50:25.807Z,76.60
2023-02-05T09:52:54.914Z,76.70
2023-02-05T09:55:26.289Z,77.30
2023-02-05T09:58:03.719Z,75.70
2023-02-05T10:01:10.132Z,74.30
2023-02-05T10:03:52.978Z,73.50
2023-02-05T10:06:22.083Z,73.90
2023-02-05T10:09:33.673Z,71.90
2023-02-05T10:12:42.069Z,71.50
2023-02-05T10:15:27.318Z,72.00
2023-02-05T10:18:25.307Z,71.00
2023-02-05T10:21:24.506Z,70.20
2023-02-05T10:24:06.371Z,68.50
2023-02-05T10:26:46.407Z,67.50
2023-02-05T10:29:17.321Z,67.20
2023-02-05T10:32:08.972Z,67.80
2023-02-05T10:34:56.956Z,67.20
2023-02-05T10:37:46.052Z,67.40
2023-02-05T10:40:15.738Z,67.70
2023-02-05T10:42:50.513Z,66.80
2023-02-05T10:45:25.934Z,66.90
2023-02-05T10:48:14.453Z,67.60
2023-02-05T10:50:57.521Z,67.10
2023-02-05T10:53:28.821Z,67.40
2023-02-05T10:56:36.939Z,67.50
2023-02-05T11:01:51.527Z,68.00
2023-02-05T11:04:42.428Z,67.70
2023-02-05T11:07:23.633Z,67.90
2023-02-05T11:09:53.473Z,67.20
2023-02-05T11:12:43.593Z,66.60
2023-02-05T11:15:26.773Z,65.40
2023-02-05T11:18:14.026Z,65.30
2023-02-05T11:20:41.086Z,65.70
2023-02-05T11:23:09.240Z,65.50
2023-02-05T11:26:02.125Z,65.40
2023-02-05T11:28:41.059Z,65.60
2023-02-05T11:31:37.237Z,65.40
2023-02-05T11:34:23.721Z,64.50
2023-02-05T11:37:32.990Z,64.60
2023-02-05T11:40:29.919Z,63.80
2023-02-05T11:43:15.819Z,64.80
2023-02-05T11:45:52.235Z,63.90
2023-02-05T11:48:39.852Z,63.30
2023-02-05T11:51:24.547Z,62.60
2023-02-05T11:53:56.292Z,63.50
2023-02-05T11:56:29.788Z,63.00
2023-02-05T11:59:09.813Z,62.70
2023-02-05T12:01:51.889Z,62.60
2023-02-05T12:04:36.007Z,61.40
2023-02-05T12:07:21.463Z,61.20
2023-02-05T12:09:58.485Z,61.00
2023-02-05T12:12:34.457Z,60.40
2023-02-05T12:15:24.497Z,60.40
2023-02-05T12:18:17.867Z,59.80
2023-02-05T12:21:15.558Z,59.90
2023-02-05T12:23:44.900Z,60.20
2023-02-05T12:27:19.868Z,59.30
2023-02-05T13:46:08.712Z,59.60
2023-02-05T15:35:43.925Z,62.30
2023-02-05T15:39:10.656Z,62.20
2023-02-05T16:44:26.190Z,73.00
2023-02-05T16:57:52.768Z,80.90
2023-02-05T17:00:48.829Z,82.50
2023-02-05T17:03:26.278Z,84.40
2023-02-05T17:06:29.469Z,85.40
2023-02-05T17:09:14.577Z,87.60
2023-02-05T17:15:23.912Z,88.40
2023-02-05T17:21:42.308Z,90.70
2023-02-05T17:24:22.062Z,91.70
2023-02-05T17:27:14.086Z,92.10
2023-02-05T17:30:30.615Z,92.40
2023-02-05T17:33:19.988Z,92.10
2023-02-05T17:36:16.372Z,91.80
2023-02-05T17:39:19.399Z,91.20
2023-02-05T17:42:22.256Z,91.20
2023-02-05T17:45:27.778Z,90.70
2023-02-05T17:48:13.677Z,90.30
2023-02-05T17:51:23.286Z,90.20
2023-02-05T17:54:08.305Z,90.30
2023-02-05T17:56:52.630Z,90.10
2023-02-05T17:59:54.755Z,89.60
2023-02-05T18:03:05.071Z,89.70
2023-02-05T18:06:34.016Z,90.10
2023-02-05T18:09:27.694Z,90.40
2023-02-05T18:15:58.220Z,90.60
2023-02-05T18:19:22.998Z,90.80
2023-02-05T18:22:17.964Z,91.40
2023-02-05T18:34:54.724Z,92.50
2023-02-05T19:49:41.964Z,99.90
2023-02-05T20:03:22.288Z,99.90
2023-02-05T20:06:05.445Z,99.90
2023-02-05T20:08:54.511Z,99.90
2023-02-05T20:22:08.500Z,99.90
2023-02-05T20:34:35.994Z,99.90
2023-02-05T20:37:26.286Z,99.90
2023-02-05T20:39:53.601Z,99.90
2023-02-05T20:42:21.224Z,99.90
